sensor_id;sensor_type;location;lat;lon;timestamp;P1;durP1;ratioP1;P2;durP2;ratioP2
44558;SDS011;30270;40.238;18.256;2022-08-04T00:01:23;6.45;;;5.65;;
44558;SDS011;30270;40.238;18.256;2022-08-04T00:09:29;12.02;;;6.40;;
44558;SDS011;30270;40.238;18.256;2022-08-04T00:12:21;6.97;;;6.28;;
44558;SDS011;30270;40.238;18.256;2022-08-04T00:14:53;14.50;;;6.40;;
44558;SDS011;30270;40.238;18.256;2022-08-04T00:17:25;11.13;;;6.20;;
44558;SDS011;30270;40.238;18.256;2022-08-04T00:19:59;7.47;;;6.03;;
44558;SDS011;30270;40.238;18.256;2022-08-04T00:22:29;8.25;;;5.80;;
44558;SDS011;30270;40.238;18.256;2022-08-04T00:24:59;8.60;;;5.75;;
44558;SDS011;30270;40.238;18.256;2022-08-04T00:27:30;11.90;;;5.95;;
44558;SDS011;30270;40.238;18.256;2022-08-04T00:29:58;6.63;;;4.97;;
44558;SDS011;30270;40.238;18.256;2022-08-04T00:32:26;7.05;;;5.75;;
44558;SDS011;30270;40.238;18.256;2022-08-04T00:34:54;6.90;;;6.07;;
44558;SDS011;30270;40.238;18.256;2022-08-04T00:37:24;9.02;;;5.47;;
44558;SDS011;30270;40.238;18.256;2022-08-04T00:39:53;8.65;;;5.68;;
44558;SDS011;30270;40.238;18.256;2022-08-04T00:42:29;8.45;;;5.85;;
44558;SDS011;30270;40.238;18.256;2022-08-04T00:45:31;6.70;;;5.45;;
44558;SDS011;30270;40.238;18.256;2022-08-04T01:02:05;5.57;;;4.97;;
44558;SDS011;30270;40.238;18.256;2022-08-04T01:21:43;7.68;;;4.72;;
44558;SDS011;30270;40.238;18.256;2022-08-04T01:24:44;6.68;;;5.15;;
44558;SDS011;30270;40.238;18.256;2022-08-04T01:30:17;5.60;;;4.63;;
44558;SDS011;30270;40.238;18.256;2022-08-04T01:35:26;6.22;;;4.80;;
44558;SDS011;30270;40.238;18.256;2022-08-04T01:40:39;5.60;;;4.82;;
44558;SDS011;30270;40.238;18.256;2022-08-04T01:43:09;5.72;;;4.70;;
44558;SDS011;30270;40.238;18.256;2022-08-04T01:45:39;5.78;;;4.90;;
44558;SDS011;30270;40.238;18.256;2022-08-04T01:48:07;6.72;;;4.47;;
44558;SDS011;30270;40.238;18.256;2022-08-04T01:50:38;5.88;;;4.78;;
44558;SDS011;30270;40.238;18.256;2022-08-04T01:53:09;5.97;;;4.07;;
44558;SDS011;30270;40.238;18.256;2022-08-04T01:55:37;6.82;;;4.57;;
44558;SDS011;30270;40.238;18.256;2022-08-04T01:58:06;8.57;;;4.55;;
44558;SDS011;30270;40.238;18.256;2022-08-04T02:00:35;7.18;;;4.88;;
44558;SDS011;30270;40.238;18.256;2022-08-04T02:03:08;6.80;;;4.38;;
44558;SDS011;30270;40.238;18.256;2022-08-04T02:05:37;8.13;;;5.55;;
44558;SDS011;30270;40.238;18.256;2022-08-04T02:08:17;5.95;;;4.43;;
44558;SDS011;30270;40.238;18.256;2022-08-04T02:16:15;6.45;;;3.97;;
44558;SDS011;30270;40.238;18.256;2022-08-04T02:22:08;5.22;;;4.72;;
44558;SDS011;30270;40.238;18.256;2022-08-04T02:24:45;5.43;;;3.92;;
44558;SDS011;30270;40.238;18.256;2022-08-04T02:27:24;5.63;;;4.13;;
44558;SDS011;30270;40.238;18.256;2022-08-04T02:29:58;4.95;;;4.05;;
44558;SDS011;30270;40.238;18.256;2022-08-04T02:32:29;5.22;;;4.13;;
44558;SDS011;30270;40.238;18.256;2022-08-04T02:35:06;4.97;;;3.55;;
44558;SDS011;30270;40.238;18.256;2022-08-04T02:37:38;4.90;;;3.97;;
44558;SDS011;30270;40.238;18.256;2022-08-04T02:40:17;4.65;;;4.07;;
44558;SDS011;30270;40.238;18.256;2022-08-04T02:42:47;4.95;;;3.95;;
44558;SDS011;30270;40.238;18.256;2022-08-04T02:45:17;6.43;;;3.67;;
44558;SDS011;30270;40.238;18.256;2022-08-04T02:47:46;5.97;;;3.95;;
44558;SDS011;30270;40.238;18.256;2022-08-04T02:50:15;5.13;;;4.50;;
44558;SDS011;30270;40.238;18.256;2022-08-04T02:52:46;5.15;;;3.58;;
44558;SDS011;30270;40.238;18.256;2022-08-04T02:55:16;5.80;;;4.10;;
44558;SDS011;30270;40.238;18.256;2022-08-04T02:57:46;5.50;;;4.30;;
44558;SDS011;30270;40.238;18.256;2022-08-04T03:00:16;4.35;;;3.80;;
44558;SDS011;30270;40.238;18.256;2022-08-04T03:05:30;4.82;;;3.90;;
44558;SDS011;30270;40.238;18.256;2022-08-04T03:08:13;5.32;;;4.20;;
44558;SDS011;30270;40.238;18.256;2022-08-04T03:28:58;5.65;;;4.00;;
44558;SDS011;30270;40.238;18.256;2022-08-04T03:48:43;5.35;;;3.65;;
44558;SDS011;30270;40.238;18.256;2022-08-04T03:57:16;5.78;;;3.67;;
44558;SDS011;30270;40.238;18.256;2022-08-04T04:00:18;5.93;;;3.50;;
44558;SDS011;30270;40.238;18.256;2022-08-04T04:09:17;5.68;;;3.50;;
44558;SDS011;30270;40.238;18.256;2022-08-04T04:17:36;6.28;;;3.38;;
44558;SDS011;30270;40.238;18.256;2022-08-04T04:23:20;6.68;;;4.15;;
44558;SDS011;30270;40.238;18.256;2022-08-04T04:31:45;5.40;;;3.15;;
44558;SDS011;30270;40.238;18.256;2022-08-04T04:56:27;5.40;;;2.75;;
44558;SDS011;30270;40.238;18.256;2022-08-04T04:59:15;3.70;;;2.67;;
44558;SDS011;30270;40.238;18.256;2022-08-04T05:12:51;9.00;;;3.35;;
44558;SDS011;30270;40.238;18.256;2022-08-04T05:15:33;5.82;;;2.50;;
44558;SDS011;30270;40.238;18.256;2022-08-04T05:18:06;7.93;;;2.80;;
44558;SDS011;30270;40.238;18.256;2022-08-04T05:20:40;5.75;;;2.30;;
44558;SDS011;30270;40.238;18.256;2022-08-04T05:23:12;5.53;;;2.50;;
44558;SDS011;30270;40.238;18.256;2022-08-04T05:28:17;4.43;;;2.58;;
44558;SDS011;30270;40.238;18.256;2022-08-04T05:30:52;5.00;;;2.35;;
44558;SDS011;30270;40.238;18.256;2022-08-04T05:33:33;5.18;;;2.58;;
44558;SDS011;30270;40.238;18.256;2022-08-04T05:36:18;5.18;;;2.28;;
44558;SDS011;30270;40.238;18.256;2022-08-04T05:38:58;4.15;;;2.67;;
44558;SDS011;30270;40.238;18.256;2022-08-04T05:41:27;4.20;;;2.85;;
44558;SDS011;30270;40.238;18.256;2022-08-04T05:43:59;5.60;;;2.92;;
44558;SDS011;30270;40.238;18.256;2022-08-04T05:46:29;4.90;;;2.45;;
44558;SDS011;30270;40.238;18.256;2022-08-04T05:48:57;3.75;;;2.50;;
44558;SDS011;30270;40.238;18.256;2022-08-04T05:51:25;5.60;;;2.67;;
44558;SDS011;30270;40.238;18.256;2022-08-04T05:53:56;7.40;;;2.72;;
44558;SDS011;30270;40.238;18.256;2022-08-04T05:56:26;4.35;;;2.47;;
44558;SDS011;30270;40.238;18.256;2022-08-04T05:58:54;7.97;;;3.22;;
44558;SDS011;30270;40.238;18.256;2022-08-04T06:01:23;7.05;;;2.95;;
44558;SDS011;30270;40.238;18.256;2022-08-04T06:03:52;5.18;;;2.47;;
44558;SDS011;30270;40.238;18.256;2022-08-04T06:06:21;3.47;;;2.45;;
44558;SDS011;30270;40.238;18.256;2022-08-04T06:08:49;7.35;;;2.70;;
44558;SDS011;30270;40.238;18.256;2022-08-04T06:11:17;10.85;;;2.83;;
44558;SDS011;30270;40.238;18.256;2022-08-04T06:13:50;3.80;;;2.25;;
44558;SDS011;30270;40.238;18.256;2022-08-04T06:18:50;4.57;;;3.20;;
44558;SDS011;30270;40.238;18.256;2022-08-04T06:21:21;2.88;;;2.15;;
44558;SDS011;30270;40.238;18.256;2022-08-04T06:23:51;4.57;;;2.63;;
44558;SDS011;30270;40.238;18.256;2022-08-04T06:26:22;4.70;;;2.92;;
44558;SDS011;30270;40.238;18.256;2022-08-04T06:28:52;4.25;;;2.30;;
44558;SDS011;30270;40.238;18.256;2022-08-04T06:31:20;4.00;;;2.80;;
44558;SDS011;30270;40.238;18.256;2022-08-04T06:34:09;6.20;;;3.30;;
44558;SDS011;30270;40.238;18.256;2022-08-04T06:36:38;7.65;;;2.78;;
44558;SDS011;30270;40.238;18.256;2022-08-04T06:39:08;4.80;;;2.70;;
44558;SDS011;30270;40.238;18.256;2022-08-04T06:41:38;6.10;;;2.50;;
44558;SDS011;30270;40.238;18.256;2022-08-04T06:44:07;6.75;;;3.00;;
44558;SDS011;30270;40.238;18.256;2022-08-04T06:46:36;4.05;;;2.60;;
44558;SDS011;30270;40.238;18.256;2022-08-04T06:49:06;4.72;;;2.50;;
44558;SDS011;30270;40.238;18.256;2022-08-04T06:51:35;3.80;;;2.50;;
44558;SDS011;30270;40.238;18.256;2022-08-04T06:54:06;8.07;;;3.13;;
44558;SDS011;30270;40.238;18.256;2022-08-04T06:56:34;6.50;;;2.85;;
44558;SDS011;30270;40.238;18.256;2022-08-04T06:59:05;7.50;;;2.70;;
44558;SDS011;30270;40.238;18.256;2022-08-04T07:01:34;6.13;;;2.75;;
44558;SDS011;30270;40.238;18.256;2022-08-04T07:04:03;5.18;;;2.75;;
44558;SDS011;30270;40.238;18.256;2022-08-04T07:06:31;4.65;;;2.70;;
44558;SDS011;30270;40.238;18.256;2022-08-04T07:09:02;5.68;;;2.97;;
44558;SDS011;30270;40.238;18.256;2022-08-04T07:11:32;6.90;;;3.40;;
44558;SDS011;30270;40.238;18.256;2022-08-04T07:14:00;4.80;;;2.50;;
44558;SDS011;30270;40.238;18.256;2022-08-04T07:16:30;6.88;;;3.10;;
44558;SDS011;30270;40.238;18.256;2022-08-04T07:18:59;6.30;;;3.10;;
44558;SDS011;30270;40.238;18.256;2022-08-04T07:21:27;6.07;;;2.88;;
44558;SDS011;30270;40.238;18.256;2022-08-04T07:23:55;6.25;;;3.30;;
44558;SDS011;30270;40.238;18.256;2022-08-04T07:26:26;7.32;;;2.90;;
44558;SDS011;30270;40.238;18.256;2022-08-04T07:28:54;5.78;;;3.05;;
44558;SDS011;30270;40.238;18.256;2022-08-04T07:31:22;6.45;;;3.42;;
44558;SDS011;30270;40.238;18.256;2022-08-04T07:33:51;7.05;;;3.60;;
44558;SDS011;30270;40.238;18.256;2022-08-04T07:36:19;6.88;;;3.10;;
44558;SDS011;30270;40.238;18.256;2022-08-04T07:38:47;8.48;;;2.85;;
44558;SDS011;30270;40.238;18.256;2022-08-04T07:41:16;8.65;;;3.22;;
44558;SDS011;30270;40.238;18.256;2022-08-04T07:44:03;4.47;;;3.00;;
44558;SDS011;30270;40.238;18.256;2022-08-04T07:46:32;5.60;;;2.85;;
44558;SDS011;30270;40.238;18.256;2022-08-04T07:49:00;4.80;;;3.05;;
44558;SDS011;30270;40.238;18.256;2022-08-04T07:51:29;6.43;;;2.75;;
44558;SDS011;30270;40.238;18.256;2022-08-04T07:53:57;4.90;;;2.67;;
44558;SDS011;30270;40.238;18.256;2022-08-04T07:56:26;5.72;;;3.08;;
44558;SDS011;30270;40.238;18.256;2022-08-04T07:58:54;6.20;;;3.35;;
44558;SDS011;30270;40.238;18.256;2022-08-04T08:01:22;8.77;;;3.45;;
44558;SDS011;30270;40.238;18.256;2022-08-04T08:03:51;9.32;;;3.95;;
44558;SDS011;30270;40.238;18.256;2022-08-04T08:06:21;5.90;;;2.65;;
44558;SDS011;30270;40.238;18.256;2022-08-04T08:08:49;4.60;;;3.58;;
44558;SDS011;30270;40.238;18.256;2022-08-04T08:11:17;6.70;;;3.28;;
44558;SDS011;30270;40.238;18.256;2022-08-04T08:13:45;5.57;;;3.55;;
44558;SDS011;30270;40.238;18.256;2022-08-04T08:16:13;6.82;;;3.35;;
44558;SDS011;30270;40.238;18.256;2022-08-04T08:18:41;11.15;;;4.72;;
44558;SDS011;30270;40.238;18.256;2022-08-04T08:21:12;6.20;;;3.40;;
44558;SDS011;30270;40.238;18.256;2022-08-04T08:23:40;7.68;;;3.65;;
44558;SDS011;30270;40.238;18.256;2022-08-04T08:26:07;4.57;;;3.53;;
44558;SDS011;30270;40.238;18.256;2022-08-04T08:28:35;4.72;;;3.63;;
44558;SDS011;30270;40.238;18.256;2022-08-04T08:31:03;5.85;;;3.45;;
44558;SDS011;30270;40.238;18.256;2022-08-04T08:33:30;4.38;;;3.20;;
44558;SDS011;30270;40.238;18.256;2022-08-04T08:36:00;6.50;;;3.70;;
44558;SDS011;30270;40.238;18.256;2022-08-04T08:58:02;5.78;;;4.32;;
44558;SDS011;30270;40.238;18.256;2022-08-04T09:12:11;6.43;;;4.10;;
44558;SDS011;30270;40.238;18.256;2022-08-04T09:14:49;5.25;;;4.18;;
44558;SDS011;30270;40.238;18.256;2022-08-04T09:20:04;7.32;;;3.78;;
44558;SDS011;30270;40.238;18.256;2022-08-04T09:22:49;4.07;;;3.60;;
44558;SDS011;30270;40.238;18.256;2022-08-04T09:25:27;6.93;;;3.65;;
44558;SDS011;30270;40.238;18.256;2022-08-04T09:28:09;5.07;;;3.17;;
44558;SDS011;30270;40.238;18.256;2022-08-04T09:36:08;5.47;;;3.35;;
44558;SDS011;30270;40.238;18.256;2022-08-04T09:39:03;5.30;;;4.18;;
44558;SDS011;30270;40.238;18.256;2022-08-04T09:42:17;3.80;;;3.00;;
44558;SDS011;30270;40.238;18.256;2022-08-04T09:52:43;3.95;;;3.50;;
44558;SDS011;30270;40.238;18.256;2022-08-04T09:55:17;4.38;;;3.20;;
44558;SDS011;30270;40.238;18.256;2022-08-04T09:58:02;6.82;;;3.58;;
44558;SDS011;30270;40.238;18.256;2022-08-04T10:00:50;4.20;;;3.30;;
44558;SDS011;30270;40.238;18.256;2022-08-04T10:03:28;5.88;;;3.40;;
44558;SDS011;30270;40.238;18.256;2022-08-04T10:06:05;5.37;;;3.70;;
44558;SDS011;30270;40.238;18.256;2022-08-04T10:12:11;3.47;;;2.88;;
44558;SDS011;30270;40.238;18.256;2022-08-04T10:14:47;3.63;;;3.15;;
44558;SDS011;30270;40.238;18.256;2022-08-04T10:20:07;4.70;;;3.03;;
44558;SDS011;30270;40.238;18.256;2022-08-04T10:22:40;5.70;;;3.45;;
44558;SDS011;30270;40.238;18.256;2022-08-04T10:28:27;4.45;;;2.88;;
44558;SDS011;30270;40.238;18.256;2022-08-04T10:30:58;7.10;;;3.10;;
44558;SDS011;30270;40.238;18.256;2022-08-04T10:33:43;3.83;;;2.80;;
44558;SDS011;30270;40.238;18.256;2022-08-04T10:36:18;8.00;;;2.83;;
44558;SDS011;30270;40.238;18.256;2022-08-04T10:39:04;4.35;;;2.95;;
44558;SDS011;30270;40.238;18.256;2022-08-04T10:50:08;3.20;;;2.50;;
44558;SDS011;30270;40.238;18.256;2022-08-04T10:52:43;4.47;;;2.83;;
44558;SDS011;30270;40.238;18.256;2022-08-04T10:55:22;7.57;;;2.85;;
44558;SDS011;30270;40.238;18.256;2022-08-04T10:58:13;3.47;;;2.80;;
44558;SDS011;30270;40.238;18.256;2022-08-04T11:00:45;3.85;;;2.17;;
44558;SDS011;30270;40.238;18.256;2022-08-04T11:06:22;4.18;;;2.70;;
44558;SDS011;30270;40.238;18.256;2022-08-04T11:08:52;3.83;;;2.83;;
44558;SDS011;30270;40.238;18.256;2022-08-04T11:13:56;3.28;;;2.47;;
44558;SDS011;30270;40.238;18.256;2022-08-04T11:16:46;4.03;;;2.78;;
44558;SDS011;30270;40.238;18.256;2022-08-04T11:21:59;3.55;;;2.70;;
44558;SDS011;30270;40.238;18.256;2022-08-04T11:24:36;4.18;;;2.50;;
44558;SDS011;30270;40.238;18.256;2022-08-04T11:27:08;4.20;;;2.80;;
44558;SDS011;30270;40.238;18.256;2022-08-04T11:29:55;4.55;;;2.88;;
44558;SDS011;30270;40.238;18.256;2022-08-04T11:35:04;4.32;;;2.35;;
44558;SDS011;30270;40.238;18.256;2022-08-04T11:37:44;4.22;;;2.60;;
44558;SDS011;30270;40.238;18.256;2022-08-04T11:40:23;4.43;;;2.50;;
44558;SDS011;30270;40.238;18.256;2022-08-04T11:43:01;4.28;;;2.70;;
44558;SDS011;30270;40.238;18.256;2022-08-04T11:45:35;5.50;;;2.78;;
44558;SDS011;30270;40.238;18.256;2022-08-04T11:48:52;3.88;;;2.53;;
44558;SDS011;30270;40.238;18.256;2022-08-04T11:51:02;4.47;;;2.50;;
44558;SDS011;30270;40.238;18.256;2022-08-04T11:53:33;4.85;;;2.53;;
44558;SDS011;30270;40.238;18.256;2022-08-04T11:56:05;6.13;;;2.40;;
44558;SDS011;30270;40.238;18.256;2022-08-04T11:58:36;5.18;;;3.03;;
44558;SDS011;30270;40.238;18.256;2022-08-04T12:01:09;3.40;;;2.70;;
44558;SDS011;30270;40.238;18.256;2022-08-04T12:03:45;3.88;;;2.53;;
44558;SDS011;30270;40.238;18.256;2022-08-04T12:15:44;3.30;;;2.45;;
44558;SDS011;30270;40.238;18.256;2022-08-04T12:18:49;5.85;;;2.58;;
44558;SDS011;30270;40.238;18.256;2022-08-04T12:24:13;4.40;;;2.53;;
44558;SDS011;30270;40.238;18.256;2022-08-04T12:26:49;5.47;;;2.25;;
44558;SDS011;30270;40.238;18.256;2022-08-04T12:29:26;3.67;;;2.45;;
44558;SDS011;30270;40.238;18.256;2022-08-04T12:31:59;3.10;;;2.10;;
44558;SDS011;30270;40.238;18.256;2022-08-04T12:34:42;5.00;;;2.78;;
44558;SDS011;30270;40.238;18.256;2022-08-04T12:37:22;3.80;;;2.38;;
44558;SDS011;30270;40.238;18.256;2022-08-04T12:40:04;6.05;;;2.67;;
44558;SDS011;30270;40.238;18.256;2022-08-04T12:45:20;5.63;;;2.83;;
44558;SDS011;30270;40.238;18.256;2022-08-04T12:47:49;3.97;;;2.50;;
44558;SDS011;30270;40.238;18.256;2022-08-04T12:50:20;3.30;;;2.17;;
44558;SDS011;30270;40.238;18.256;2022-08-04T12:52:53;3.72;;;2.70;;
44558;SDS011;30270;40.238;18.256;2022-08-04T12:55:28;3.88;;;2.75;;
44558;SDS011;30270;40.238;18.256;2022-08-04T12:57:57;4.75;;;2.30;;
44558;SDS011;30270;40.238;18.256;2022-08-04T13:00:28;4.50;;;2.92;;
44558;SDS011;30270;40.238;18.256;2022-08-04T13:03:05;4.80;;;2.50;;
44558;SDS011;30270;40.238;18.256;2022-08-04T13:05:40;4.45;;;2.53;;
44558;SDS011;30270;40.238;18.256;2022-08-04T13:08:12;3.63;;;2.65;;
44558;SDS011;30270;40.238;18.256;2022-08-04T13:10:43;2.55;;;2.28;;
44558;SDS011;30270;40.238;18.256;2022-08-04T13:13:23;3.47;;;2.42;;
44558;SDS011;30270;40.238;18.256;2022-08-04T13:15:54;4.20;;;2.40;;
44558;SDS011;30270;40.238;18.256;2022-08-04T13:18:37;4.13;;;2.28;;
44558;SDS011;30270;40.238;18.256;2022-08-04T13:21:08;5.25;;;2.35;;
44558;SDS011;30270;40.238;18.256;2022-08-04T13:23:41;3.88;;;2.33;;
44558;SDS011;30270;40.238;18.256;2022-08-04T13:26:15;3.75;;;2.20;;
44558;SDS011;30270;40.238;18.256;2022-08-04T13:28:45;3.60;;;2.60;;
44558;SDS011;30270;40.238;18.256;2022-08-04T13:31:17;4.85;;;2.67;;
44558;SDS011;30270;40.238;18.256;2022-08-04T13:33:49;4.07;;;2.33;;
44558;SDS011;30270;40.238;18.256;2022-08-04T13:36:23;3.95;;;2.80;;
44558;SDS011;30270;40.238;18.256;2022-08-04T13:38:53;4.18;;;2.42;;
44558;SDS011;30270;40.238;18.256;2022-08-04T13:41:24;3.33;;;2.50;;
44558;SDS011;30270;40.238;18.256;2022-08-04T13:43:57;3.80;;;2.28;;
44558;SDS011;30270;40.238;18.256;2022-08-04T13:46:28;3.55;;;1.80;;
44558;SDS011;30270;40.238;18.256;2022-08-04T13:49:00;2.83;;;2.00;;
44558;SDS011;30270;40.238;18.256;2022-08-04T13:51:53;4.25;;;2.17;;
44558;SDS011;30270;40.238;18.256;2022-08-04T13:57:10;4.18;;;2.90;;
44558;SDS011;30270;40.238;18.256;2022-08-04T13:59:47;4.60;;;2.30;;
44558;SDS011;30270;40.238;18.256;2022-08-04T14:02:27;3.45;;;2.45;;
44558;SDS011;30270;40.238;18.256;2022-08-04T14:05:20;2.85;;;2.20;;
44558;SDS011;30270;40.238;18.256;2022-08-04T14:08:11;3.30;;;2.70;;
44558;SDS011;30270;40.238;18.256;2022-08-04T14:10:52;4.43;;;2.30;;
44558;SDS011;30270;40.238;18.256;2022-08-04T14:13:28;3.22;;;2.35;;
44558;SDS011;30270;40.238;18.256;2022-08-04T14:15:57;2.78;;;2.17;;
44558;SDS011;30270;40.238;18.256;2022-08-04T14:18:25;4.13;;;2.67;;
44558;SDS011;30270;40.238;18.256;2022-08-04T14:20:57;3.55;;;2.28;;
44558;SDS011;30270;40.238;18.256;2022-08-04T14:23:40;3.58;;;2.40;;
44558;SDS011;30270;40.238;18.256;2022-08-04T14:28:42;2.83;;;2.30;;
44558;SDS011;30270;40.238;18.256;2022-08-04T14:31:20;11.70;;;2.80;;
44558;SDS011;30270;40.238;18.256;2022-08-04T14:33:53;2.88;;;2.42;;
44558;SDS011;30270;40.238;18.256;2022-08-04T14:36:21;3.88;;;2.22;;
44558;SDS011;30270;40.238;18.256;2022-08-04T14:41:26;4.05;;;2.85;;
44558;SDS011;30270;40.238;18.256;2022-08-04T14:43:56;3.33;;;2.10;;
44558;SDS011;30270;40.238;18.256;2022-08-04T14:46:26;3.70;;;2.35;;
44558;SDS011;30270;40.238;18.256;2022-08-04T14:51:33;3.33;;;2.30;;
44558;SDS011;30270;40.238;18.256;2022-08-04T14:54:03;4.28;;;2.47;;
44558;SDS011;30270;40.238;18.256;2022-08-04T14:56:33;3.88;;;2.55;;
44558;SDS011;30270;40.238;18.256;2022-08-04T14:59:11;4.78;;;2.42;;
44558;SDS011;30270;40.238;18.256;2022-08-04T15:01:39;3.80;;;2.33;;
44558;SDS011;30270;40.238;18.256;2022-08-04T15:04:09;3.20;;;2.20;;
44558;SDS011;30270;40.238;18.256;2022-08-04T15:06:38;3.88;;;2.40;;
44558;SDS011;30270;40.238;18.256;2022-08-04T15:09:06;2.80;;;2.13;;
44558;SDS011;30270;40.238;18.256;2022-08-04T15:11:35;2.75;;;1.92;;
44558;SDS011;30270;40.238;18.256;2022-08-04T15:14:05;3.20;;;2.33;;
44558;SDS011;30270;40.238;18.256;2022-08-04T15:16:34;6.43;;;2.63;;
44558;SDS011;30270;40.238;18.256;2022-08-04T15:19:02;3.22;;;2.55;;
44558;SDS011;30270;40.238;18.256;2022-08-04T15:21:29;3.88;;;2.38;;
44558;SDS011;30270;40.238;18.256;2022-08-04T15:23:58;4.85;;;2.40;;
44558;SDS011;30270;40.238;18.256;2022-08-04T15:26:48;4.10;;;2.45;;
44558;SDS011;30270;40.238;18.256;2022-08-04T15:29:27;4.10;;;3.30;;
44558;SDS011;30270;40.238;18.256;2022-08-04T15:32:10;3.78;;;2.33;;
44558;SDS011;30270;40.238;18.256;2022-08-04T15:34:51;3.40;;;2.60;;
44558;SDS011;30270;40.238;18.256;2022-08-04T15:37:45;2.83;;;2.03;;
44558;SDS011;30270;40.238;18.256;2022-08-04T15:48:37;3.42;;;2.65;;
44558;SDS011;30270;40.238;18.256;2022-08-04T15:51:08;4.28;;;2.30;;
44558;SDS011;30270;40.238;18.256;2022-08-04T15:58:57;3.67;;;2.17;;
44558;SDS011;30270;40.238;18.256;2022-08-04T16:01:25;3.97;;;2.20;;
44558;SDS011;30270;40.238;18.256;2022-08-04T16:03:53;4.50;;;2.70;;
44558;SDS011;30270;40.238;18.256;2022-08-04T16:16:48;4.03;;;2.70;;
44558;SDS011;30270;40.238;18.256;2022-08-04T16:22:02;7.35;;;2.40;;
44558;SDS011;30270;40.238;18.256;2022-08-04T16:24:35;4.53;;;2.28;;
44558;SDS011;30270;40.238;18.256;2022-08-04T16:27:04;3.13;;;2.30;;
44558;SDS011;30270;40.238;18.256;2022-08-04T16:29:34;4.05;;;2.80;;
44558;SDS011;30270;40.238;18.256;2022-08-04T16:37:17;3.90;;;2.33;;
44558;SDS011;30270;40.238;18.256;2022-08-04T16:39:46;3.38;;;2.90;;
44558;SDS011;30270;40.238;18.256;2022-08-04T16:44:57;5.88;;;2.53;;
44558;SDS011;30270;40.238;18.256;2022-08-04T16:50:17;6.10;;;2.72;;
44558;SDS011;30270;40.238;18.256;2022-08-04T16:52:50;5.03;;;2.42;;
44558;SDS011;30270;40.238;18.256;2022-08-04T16:55:23;4.20;;;2.30;;
44558;SDS011;30270;40.238;18.256;2022-08-04T16:57:53;5.63;;;2.70;;
44558;SDS011;30270;40.238;18.256;2022-08-04T17:03:06;3.58;;;2.30;;
44558;SDS011;30270;40.238;18.256;2022-08-04T17:05:37;5.88;;;2.80;;
44558;SDS011;30270;40.238;18.256;2022-08-04T17:08:06;5.68;;;2.78;;
44558;SDS011;30270;40.238;18.256;2022-08-04T17:10:55;4.07;;;2.92;;
44558;SDS011;30270;40.238;18.256;2022-08-04T17:16:02;3.90;;;2.83;;
44558;SDS011;30270;40.238;18.256;2022-08-04T17:18:36;4.65;;;2.97;;
44558;SDS011;30270;40.238;18.256;2022-08-04T17:21:07;6.22;;;2.97;;
44558;SDS011;30270;40.238;18.256;2022-08-04T17:23:48;5.75;;;2.90;;
44558;SDS011;30270;40.238;18.256;2022-08-04T17:26:18;9.35;;;3.53;;
44558;SDS011;30270;40.238;18.256;2022-08-04T17:28:49;5.60;;;3.70;;
44558;SDS011;30270;40.238;18.256;2022-08-04T17:31:21;5.32;;;3.05;;
44558;SDS011;30270;40.238;18.256;2022-08-04T17:33:51;4.43;;;3.45;;
44558;SDS011;30270;40.238;18.256;2022-08-04T17:36:21;4.60;;;3.33;;
44558;SDS011;30270;40.238;18.256;2022-08-04T17:38:58;6.80;;;3.35;;
44558;SDS011;30270;40.238;18.256;2022-08-04T17:41:28;7.63;;;3.30;;
44558;SDS011;30270;40.238;18.256;2022-08-04T17:43:58;3.80;;;2.85;;
44558;SDS011;30270;40.238;18.256;2022-08-04T17:46:37;5.60;;;3.10;;
44558;SDS011;30270;40.238;18.256;2022-08-04T17:57:14;4.93;;;3.00;;
44558;SDS011;30270;40.238;18.256;2022-08-04T17:59:44;5.97;;;3.17;;
44558;SDS011;30270;40.238;18.256;2022-08-04T18:02:20;10.00;;;3.35;;
44558;SDS011;30270;40.238;18.256;2022-08-04T18:05:01;3.42;;;3.10;;
44558;SDS011;30270;40.238;18.256;2022-08-04T18:07:34;4.82;;;3.38;;
44558;SDS011;30270;40.238;18.256;2022-08-04T18:10:03;4.95;;;3.13;;
44558;SDS011;30270;40.238;18.256;2022-08-04T18:12:35;5.03;;;2.63;;
44558;SDS011;30270;40.238;18.256;2022-08-04T18:15:04;5.72;;;3.30;;
44558;SDS011;30270;40.238;18.256;2022-08-04T18:17:38;9.27;;;3.95;;
44558;SDS011;30270;40.238;18.256;2022-08-04T18:20:13;6.05;;;3.03;;
44558;SDS011;30270;40.238;18.256;2022-08-04T18:22:41;7.47;;;3.42;;
44558;SDS011;30270;40.238;18.256;2022-08-04T18:25:10;5.50;;;3.92;;
44558;SDS011;30270;40.238;18.256;2022-08-04T18:30:23;7.25;;;3.30;;
44558;SDS011;30270;40.238;18.256;2022-08-04T18:32:52;5.00;;;2.90;;
44558;SDS011;30270;40.238;18.256;2022-08-04T18:35:22;4.43;;;2.97;;
44558;SDS011;30270;40.238;18.256;2022-08-04T18:37:50;4.60;;;3.00;;
44558;SDS011;30270;40.238;18.256;2022-08-04T18:40:17;5.93;;;2.38;;
44558;SDS011;30270;40.238;18.256;2022-08-04T18:42:45;4.70;;;2.80;;
44558;SDS011;30270;40.238;18.256;2022-08-04T18:45:15;5.85;;;3.92;;
44558;SDS011;30270;40.238;18.256;2022-08-04T18:47:43;5.78;;;3.22;;
44558;SDS011;30270;40.238;18.256;2022-08-04T18:50:11;5.00;;;3.20;;
44558;SDS011;30270;40.238;18.256;2022-08-04T18:52:39;4.15;;;3.00;;
44558;SDS011;30270;40.238;18.256;2022-08-04T18:55:17;3.97;;;2.80;;
44558;SDS011;30270;40.238;18.256;2022-08-04T18:57:45;4.45;;;2.63;;
44558;SDS011;30270;40.238;18.256;2022-08-04T19:00:13;6.50;;;3.05;;
44558;SDS011;30270;40.238;18.256;2022-08-04T19:02:41;5.93;;;3.33;;
44558;SDS011;30270;40.238;18.256;2022-08-04T19:05:08;7.07;;;3.30;;
44558;SDS011;30270;40.238;18.256;2022-08-04T19:07:38;5.03;;;2.97;;
44558;SDS011;30270;40.238;18.256;2022-08-04T19:10:05;4.38;;;3.60;;
44558;SDS011;30270;40.238;18.256;2022-08-04T19:12:33;3.63;;;2.92;;
44558;SDS011;30270;40.238;18.256;2022-08-04T19:15:02;6.35;;;3.10;;
44558;SDS011;30270;40.238;18.256;2022-08-04T19:17:30;6.80;;;3.25;;
44558;SDS011;30270;40.238;18.256;2022-08-04T19:20:01;4.85;;;3.72;;
44558;SDS011;30270;40.238;18.256;2022-08-04T19:22:31;4.43;;;3.15;;
44558;SDS011;30270;40.238;18.256;2022-08-04T19:24:59;4.90;;;2.85;;
44558;SDS011;30270;40.238;18.256;2022-08-04T19:27:28;4.97;;;3.17;;
44558;SDS011;30270;40.238;18.256;2022-08-04T19:29:56;4.80;;;3.30;;
44558;SDS011;30270;40.238;18.256;2022-08-04T19:32:24;4.32;;;3.72;;
44558;SDS011;30270;40.238;18.256;2022-08-04T19:34:51;5.07;;;3.33;;
44558;SDS011;30270;40.238;18.256;2022-08-04T19:37:19;6.25;;;3.70;;
44558;SDS011;30270;40.238;18.256;2022-08-04T19:39:46;5.65;;;3.75;;
44558;SDS011;30270;40.238;18.256;2022-08-04T19:42:14;6.65;;;3.42;;
44558;SDS011;30270;40.238;18.256;2022-08-04T19:44:42;5.68;;;3.67;;
44558;SDS011;30270;40.238;18.256;2022-08-04T19:47:10;5.70;;;3.80;;
44558;SDS011;30270;40.238;18.256;2022-08-04T19:49:38;5.75;;;4.30;;
44558;SDS011;30270;40.238;18.256;2022-08-04T19:52:05;5.65;;;3.35;;
44558;SDS011;30270;40.238;18.256;2022-08-04T19:54:34;6.35;;;3.80;;
44558;SDS011;30270;40.238;18.256;2022-08-04T19:57:01;5.95;;;3.67;;
44558;SDS011;30270;40.238;18.256;2022-08-04T19:59:29;5.50;;;3.47;;
44558;SDS011;30270;40.238;18.256;2022-08-04T20:01:57;5.50;;;3.50;;
44558;SDS011;30270;40.238;18.256;2022-08-04T20:04:24;5.95;;;3.88;;
44558;SDS011;30270;40.238;18.256;2022-08-04T20:06:52;4.47;;;3.60;;
44558;SDS011;30270;40.238;18.256;2022-08-04T20:09:20;10.27;;;4.32;;
44558;SDS011;30270;40.238;18.256;2022-08-04T20:11:48;4.47;;;3.90;;
44558;SDS011;30270;40.238;18.256;2022-08-04T20:14:15;7.03;;;3.55;;
44558;SDS011;30270;40.238;18.256;2022-08-04T20:16:43;4.68;;;3.75;;
44558;SDS011;30270;40.238;18.256;2022-08-04T20:19:12;5.82;;;4.32;;